createdAt,value
2018-08-22T00:01:30.630Z,17.40
2018-08-22T00:03:58.658Z,17.97
2018-08-22T00:06:26.701Z,17.80
2018-08-22T00:08:54.869Z,17.83
2018-08-22T00:11:22.970Z,18.50
2018-08-22T00:13:51.136Z,17.83
2018-08-22T00:16:19.229Z,17.87
2018-08-22T00:18:48.416Z,17.70
2018-08-22T00:21:16.487Z,16.83
2018-08-22T00:23:44.660Z,17.20
2018-08-22T00:26:12.849Z,16.93
2018-08-22T00:28:41.139Z,17.37
2018-08-22T00:31:09.239Z,18.10
2018-08-22T00:33:37.331Z,17.60
2018-08-22T00:36:05.350Z,16.60
2018-08-22T00:38:33.505Z,17.73
2018-08-22T00:41:01.625Z,17.03
2018-08-22T00:43:30.812Z,17.33
2018-08-22T00:45:58.942Z,16.93
2018-08-22T00:48:26.986Z,17.33
2018-08-22T00:50:55.120Z,16.57
2018-08-22T00:53:23.235Z,18.00
2018-08-22T00:55:51.262Z,17.10
2018-08-22T00:58:19.383Z,17.97
2018-08-22T01:00:47.547Z,17.43
2018-08-22T01:03:15.732Z,17.10
2018-08-22T01:05:43.825Z,18.57
2018-08-22T01:08:11.974Z,17.20
2018-08-22T01:10:40.001Z,17.70
2018-08-22T01:13:08.126Z,18.53
2018-08-22T01:15:36.200Z,17.50
2018-08-22T01:18:04.272Z,17.10
2018-08-22T01:20:32.384Z,17.20
2018-08-22T01:23:00.406Z,17.80
2018-08-22T01:25:28.430Z,17.00
2018-08-22T01:27:56.557Z,17.60
2018-08-22T01:30:24.596Z,16.17
2018-08-22T01:32:52.645Z,16.43
2018-08-22T01:42:19.635Z,17.07
2018-08-22T01:44:47.800Z,15.10
2018-08-22T01:47:16.108Z,14.70
2018-08-22T01:49:44.184Z,15.83
2018-08-22T01:52:12.283Z,15.67
2018-08-22T01:54:40.314Z,17.20
2018-08-22T01:57:08.338Z,16.60
2018-08-22T01:59:36.436Z,16.70
2018-08-22T02:02:04.718Z,17.00
2018-08-22T02:04:32.855Z,15.70
2018-08-22T02:07:00.931Z,16.03
2018-08-22T02:09:28.952Z,15.23
2018-08-22T02:11:57.108Z,16.10
2018-08-22T02:14:25.178Z,16.57
2018-08-22T02:16:53.390Z,15.70
2018-08-22T02:19:21.437Z,15.80
2018-08-22T02:21:49.560Z,15.57
2018-08-22T02:24:17.595Z,16.10
2018-08-22T02:26:45.746Z,16.20
2018-08-22T02:29:13.913Z,17.17
2018-08-22T02:31:42.068Z,16.30
2018-08-22T02:34:10.141Z,16.00
2018-08-22T02:36:38.267Z,16.07
2018-08-22T02:39:07.446Z,14.80
2018-08-22T02:41:35.580Z,15.43
2018-08-22T02:44:03.698Z,14.10
2018-08-22T02:46:31.825Z,15.30
2018-08-22T02:48:59.896Z,14.80
2018-08-22T02:51:27.995Z,15.30
2018-08-22T02:53:56.105Z,14.30
2018-08-22T02:56:24.167Z,15.20
2018-08-22T02:58:52.243Z,14.87
2018-08-22T03:01:20.339Z,14.43
2018-08-22T03:03:48.423Z,14.90
2018-08-22T03:06:16.446Z,15.77
2018-08-22T03:08:44.500Z,14.87
2018-08-22T03:11:12.579Z,14.67
2018-08-22T03:13:40.757Z,14.13
2018-08-22T03:16:08.815Z,14.07
2018-08-22T03:18:36.887Z,14.50
2018-08-22T03:21:04.972Z,13.73
2018-08-22T03:23:33.078Z,14.20
2018-08-22T03:26:01.247Z,14.40
2018-08-22T03:28:29.289Z,13.13
2018-08-22T03:30:57.578Z,14.03
2018-08-22T03:33:25.905Z,13.07
2018-08-22T03:35:54.021Z,14.97
2018-08-22T03:38:22.127Z,13.90
2018-08-22T03:40:50.263Z,14.40
2018-08-22T03:43:18.324Z,13.40
2018-08-22T03:45:46.404Z,14.33
2018-08-22T03:48:14.471Z,14.07
2018-08-22T03:50:42.633Z,14.70
2018-08-22T03:53:10.816Z,13.80
2018-08-22T03:55:38.988Z,14.60
2018-08-22T03:58:07.165Z,13.10
2018-08-22T04:00:35.356Z,14.37
2018-08-22T04:03:03.583Z,15.40
2018-08-22T04:05:31.655Z,14.50
2018-08-22T04:07:59.760Z,15.27
2018-08-22T04:10:27.969Z,14.33
2018-08-22T04:12:56.143Z,14.50
2018-08-22T04:15:24.272Z,14.70
2018-08-22T04:17:52.429Z,15.53
2018-08-22T04:20:20.602Z,14.33
2018-08-22T04:22:48.684Z,14.80
2018-08-22T04:25:16.816Z,13.70
2018-08-22T04:27:44.967Z,15.50
2018-08-22T04:30:13.066Z,14.60
2018-08-22T04:32:41.188Z,15.60
2018-08-22T04:35:09.410Z,14.20
2018-08-22T04:37:37.531Z,13.93
2018-08-22T04:40:05.774Z,14.63
2018-08-22T04:42:33.875Z,14.00
2018-08-22T04:45:02.081Z,14.00
2018-08-22T04:47:30.416Z,13.93
2018-08-22T04:49:58.512Z,14.50
2018-08-22T04:52:26.664Z,15.23
2018-08-22T04:54:54.774Z,14.60
2018-08-22T04:57:22.935Z,16.37
2018-08-22T04:59:50.972Z,16.47
2018-08-22T05:02:19.055Z,15.90
2018-08-22T05:04:47.115Z,16.67
2018-08-22T05:07:15.139Z,16.50
2018-08-22T05:09:43.220Z,16.90
2018-08-22T05:12:11.344Z,16.53
2018-08-22T05:14:39.513Z,16.00
2018-08-22T05:17:07.536Z,14.83
2018-08-22T05:19:35.608Z,15.80
2018-08-22T05:22:03.679Z,16.23
2018-08-22T05:24:31.740Z,15.80
2018-08-22T05:26:59.990Z,15.20
2018-08-22T05:29:28.192Z,16.43
2018-08-22T05:31:58.278Z,18.13
2018-08-22T05:34:26.674Z,15.97
2018-08-22T05:39:46.152Z,19.30
2018-08-22T05:42:14.200Z,17.40
2018-08-22T05:44:42.308Z,18.47
2018-08-22T05:47:10.440Z,17.70
2018-08-22T05:49:38.504Z,19.30
2018-08-22T05:52:06.570Z,18.60
2018-08-22T05:54:34.690Z,18.20
2018-08-22T05:57:02.814Z,18.83
2018-08-22T05:59:30.928Z,18.67
2018-08-22T06:01:59.037Z,18.10
2018-08-22T06:04:27.111Z,19.03
2018-08-22T06:06:55.229Z,19.10
2018-08-22T06:09:23.335Z,20.57
2018-08-22T06:11:53.040Z,20.60
2018-08-22T06:14:21.127Z,19.80
2018-08-22T06:16:49.206Z,25.87
2018-08-22T06:19:17.265Z,25.80
2018-08-22T06:21:45.353Z,21.70
2018-08-22T06:24:13.427Z,24.00
2018-08-22T06:26:41.524Z,22.63
2018-08-22T06:29:09.638Z,22.00
2018-08-22T06:31:37.671Z,22.30
2018-08-22T06:34:05.803Z,22.77
2018-08-22T06:36:33.852Z,20.23
2018-08-22T06:39:01.940Z,22.50
2018-08-22T06:41:29.996Z,21.57
2018-08-22T06:43:58.065Z,21.10
2018-08-22T06:46:26.135Z,21.70
2018-08-22T06:48:54.220Z,21.80
2018-08-22T06:51:22.288Z,21.73
2018-08-22T06:53:50.405Z,22.40
2018-08-22T06:56:18.462Z,21.33
2018-08-22T06:58:46.549Z,21.77
2018-08-22T07:01:14.686Z,22.83
2018-08-22T07:03:42.778Z,21.90
2018-08-22T07:06:10.890Z,23.33
2018-08-22T07:08:39.017Z,22.47
2018-08-22T07:11:07.083Z,22.77
2018-08-22T07:13:35.278Z,22.53
2018-08-22T07:16:03.398Z,23.57
2018-08-22T07:18:31.478Z,23.03
2018-08-22T07:20:59.719Z,23.63
2018-08-22T07:23:27.723Z,24.17
2018-08-22T07:25:55.804Z,24.20
2018-08-22T07:28:23.954Z,24.70
2018-08-22T07:30:52.058Z,24.60
2018-08-22T07:33:20.111Z,24.33
2018-08-22T07:35:48.232Z,29.83
2018-08-22T07:38:16.282Z,25.83
2018-08-22T07:40:44.375Z,24.50
2018-08-22T07:43:12.583Z,23.77
2018-08-22T07:45:40.623Z,24.57
2018-08-22T07:48:08.729Z,25.43
2018-08-22T07:50:36.834Z,23.97
2018-08-22T07:53:05.773Z,24.90
2018-08-22T07:55:42.492Z,24.77
2018-08-22T07:58:10.685Z,24.27
2018-08-22T08:00:38.771Z,30.57
2018-08-22T08:03:06.901Z,26.17
2018-08-22T08:05:35.082Z,24.73
2018-08-22T08:08:03.155Z,25.57
2018-08-22T08:10:31.971Z,25.90
2018-08-22T08:13:00.440Z,25.07
2018-08-22T08:15:28.574Z,25.63
2018-08-22T08:17:57.025Z,23.87
2018-08-22T08:20:25.169Z,24.43
2018-08-22T08:22:53.511Z,23.97
2018-08-22T08:25:21.620Z,23.70
2018-08-22T08:27:49.738Z,23.40
2018-08-22T08:30:17.858Z,24.43
2018-08-22T08:32:46.193Z,24.00
2018-08-22T08:35:14.350Z,22.53
2018-08-22T08:37:42.478Z,24.43
2018-08-22T08:40:10.656Z,25.10
2018-08-22T08:42:39.499Z,24.30
2018-08-22T08:45:08.695Z,24.93
2018-08-22T08:47:37.047Z,23.93
2018-08-22T08:50:05.200Z,24.70
2018-08-22T08:52:33.228Z,24.77
2018-08-22T08:55:01.301Z,25.77
2018-08-22T08:57:29.401Z,26.10
2018-08-22T08:59:57.497Z,25.80
2018-08-22T09:02:26.202Z,25.23
2018-08-22T09:04:54.339Z,26.50
2018-08-22T09:07:22.461Z,25.30
2018-08-22T09:09:50.552Z,26.73
2018-08-22T09:12:18.624Z,26.10
2018-08-22T09:14:46.742Z,25.70
2018-08-22T09:17:14.880Z,25.40
2018-08-22T09:19:43.014Z,24.80
2018-08-22T09:22:11.211Z,25.30
2018-08-22T09:24:39.289Z,25.43
2018-08-22T09:27:07.361Z,25.30
2018-08-22T09:29:35.500Z,24.97
2018-08-22T09:32:03.580Z,25.40
2018-08-22T09:34:31.744Z,24.70
2018-08-22T09:36:59.949Z,25.80
2018-08-22T09:39:28.172Z,25.90
2018-08-22T09:41:56.282Z,26.23
2018-08-22T09:44:24.353Z,25.30
2018-08-22T09:46:52.526Z,26.30
2018-08-22T09:49:20.575Z,25.50
2018-08-22T09:51:48.740Z,25.10
2018-08-22T09:54:16.869Z,25.70
2018-08-22T09:56:44.971Z,26.40
2018-08-22T09:59:13.061Z,25.10
2018-08-22T10:01:43.093Z,26.40
2018-08-22T10:04:11.198Z,24.70
2018-08-22T10:06:41.572Z,23.97
2018-08-22T10:09:14.821Z,25.33
2018-08-22T10:11:42.965Z,26.20
2018-08-22T10:14:11.308Z,26.50
2018-08-22T10:16:39.534Z,25.07
2018-08-22T10:19:07.684Z,24.20
2018-08-22T10:21:35.841Z,25.20
2018-08-22T10:24:03.968Z,25.20
2018-08-22T10:26:32.106Z,25.03
2018-08-22T10:29:00.169Z,24.57
2018-08-22T10:31:28.268Z,24.53
2018-08-22T10:33:56.672Z,25.07
2018-08-22T10:36:24.809Z,25.17
2018-08-22T10:38:52.911Z,25.73
2018-08-22T10:41:21.056Z,25.57
2018-08-22T10:43:49.152Z,25.30
2018-08-22T10:46:17.220Z,25.53
2018-08-22T10:48:45.259Z,24.80
2018-08-22T10:51:13.427Z,26.10
2018-08-22T10:53:41.521Z,26.10
2018-08-22T10:56:09.653Z,26.50
2018-08-22T10:58:37.755Z,25.60
2018-08-22T11:01:05.819Z,24.27
2018-08-22T11:03:34.021Z,25.40
2018-08-22T11:06:02.148Z,24.27
2018-08-22T11:08:30.350Z,25.00
2018-08-22T11:10:58.414Z,24.60
2018-08-22T11:13:26.566Z,24.80
2018-08-22T11:15:54.820Z,24.20
2018-08-22T11:18:22.725Z,25.23
2018-08-22T11:20:53.048Z,25.03
2018-08-22T11:23:33.435Z,25.60
2018-08-22T11:26:13.847Z,25.17
2018-08-22T11:28:53.569Z,25.00
2018-08-22T11:31:33.246Z,26.00
2018-08-22T11:34:12.924Z,26.50
2018-08-22T11:36:41.040Z,25.27
2018-08-22T11:39:09.149Z,25.83
2018-08-22T11:41:37.214Z,27.90
2018-08-22T11:44:05.544Z,26.50
2018-08-22T11:46:33.861Z,26.13
2018-08-22T11:49:02.083Z,25.90
2018-08-22T11:51:30.228Z,26.13
2018-08-22T11:53:58.264Z,26.60
2018-08-22T11:56:26.366Z,26.20
2018-08-22T11:58:54.529Z,27.53
2018-08-22T12:01:22.641Z,26.47
2018-08-22T12:03:50.842Z,26.00
2018-08-22T12:06:18.967Z,25.20
2018-08-22T12:08:46.992Z,26.87
2018-08-22T12:11:15.138Z,26.23
2018-08-22T12:13:43.245Z,25.90
2018-08-22T12:16:11.378Z,25.80
2018-08-22T12:18:39.509Z,25.80
2018-08-22T12:21:07.593Z,25.30
2018-08-22T12:23:35.668Z,26.30
2018-08-22T12:26:03.769Z,26.67
2018-08-22T12:28:31.954Z,26.37
2018-08-22T12:31:00.097Z,25.67
2018-08-22T12:33:28.355Z,26.57
2018-08-22T12:35:56.428Z,29.77
2018-08-22T12:38:24.548Z,26.70
2018-08-22T12:40:52.719Z,24.70
2018-08-22T12:43:20.832Z,24.90
2018-08-22T12:45:48.920Z,25.20
2018-08-22T12:48:16.964Z,25.03
2018-08-22T12:50:45.098Z,25.00
2018-08-22T12:53:13.237Z,25.20
2018-08-22T12:55:41.370Z,24.77
2018-08-22T12:58:09.420Z,24.10
2018-08-22T13:00:37.591Z,24.20
2018-08-22T13:03:05.780Z,24.97
2018-08-22T13:05:34.003Z,25.33
2018-08-22T13:08:02.167Z,26.23
2018-08-22T13:10:31.275Z,26.27
2018-08-22T13:12:59.384Z,25.80
2018-08-22T13:15:27.623Z,24.73
2018-08-22T13:20:17.043Z,25.70
2018-08-22T13:22:45.148Z,26.37
2018-08-22T13:25:13.273Z,26.80
2018-08-22T13:27:41.390Z,27.10
2018-08-22T13:30:09.606Z,26.80
2018-08-22T13:32:37.737Z,26.43
2018-08-22T13:35:06.255Z,27.00
2018-08-22T13:37:34.390Z,26.67
2018-08-22T13:40:02.558Z,26.83
2018-08-22T13:42:30.746Z,26.30
2018-08-22T13:44:58.856Z,25.53
2018-08-22T13:47:26.969Z,25.57
2018-08-22T13:49:55.385Z,26.20
2018-08-22T13:52:23.702Z,26.27
2018-08-22T13:54:51.808Z,26.63
2018-08-22T13:57:20.008Z,25.93
2018-08-22T13:59:48.181Z,25.73
2018-08-22T14:02:16.406Z,24.63
2018-08-22T14:04:44.591Z,26.20
2018-08-22T14:07:12.759Z,25.77
2018-08-22T14:09:40.845Z,27.00
2018-08-22T14:12:09.033Z,24.97
2018-08-22T14:14:37.340Z,26.00
2018-08-22T14:17:05.533Z,24.53
2018-08-22T14:19:33.726Z,25.10
2018-08-22T14:22:01.907Z,25.60
2018-08-22T14:24:30.030Z,24.97
2018-08-22T14:26:58.208Z,24.93
2018-08-22T14:29:26.329Z,23.80
2018-08-22T14:31:54.451Z,25.00
2018-08-22T14:34:22.607Z,25.00
2018-08-22T14:36:50.727Z,24.50
2018-08-22T14:39:19.133Z,25.10
2018-08-22T14:41:47.229Z,26.03
2018-08-22T14:44:15.481Z,26.10
2018-08-22T14:46:43.590Z,25.30
2018-08-22T14:49:11.788Z,25.83
2018-08-22T14:51:40.023Z,24.90
2018-08-22T14:54:08.168Z,25.87
2018-08-22T14:56:36.321Z,25.60
2018-08-22T14:59:05.023Z,25.73
2018-08-22T15:01:33.200Z,25.73
2018-08-22T15:04:01.341Z,25.93
2018-08-22T15:06:29.521Z,25.60
2018-08-22T15:09:04.409Z,25.90
2018-08-22T15:11:33.842Z,25.33
2018-08-22T15:14:01.985Z,26.90
2018-08-22T15:16:30.364Z,25.63
2018-08-22T15:18:58.482Z,25.47
2018-08-22T15:21:26.653Z,27.03
2018-08-22T15:23:55.071Z,25.80
2018-08-22T15:26:24.196Z,25.80
2018-08-22T15:28:52.482Z,25.60
2018-08-22T15:31:20.648Z,25.50
2018-08-22T15:33:48.947Z,26.17
2018-08-22T15:36:17.225Z,24.00
2018-08-22T15:38:45.385Z,24.83
2018-08-22T15:41:14.215Z,25.30
2018-08-22T15:43:42.412Z,23.90
2018-08-22T15:46:10.631Z,24.70
2018-08-22T15:48:38.728Z,24.70
2018-08-22T15:51:06.841Z,24.10
2018-08-22T15:53:34.934Z,24.80
2018-08-22T15:56:03.159Z,23.20
2018-08-22T15:58:31.231Z,24.77
2018-08-22T16:00:59.328Z,24.70
2018-08-22T16:03:27.424Z,28.60
2018-08-22T16:05:56.289Z,28.87
2018-08-22T16:08:25.807Z,24.70
2018-08-22T16:10:53.917Z,23.97
2018-08-22T16:13:27.548Z,24.40
2018-08-22T16:15:56.740Z,24.27
2018-08-22T16:18:24.774Z,24.73
2018-08-22T16:20:54.179Z,26.70
2018-08-22T16:23:24.661Z,26.20
2018-08-22T16:25:53.499Z,25.07
2018-08-22T16:28:22.138Z,24.67
2018-08-22T16:30:57.700Z,25.50
2018-08-22T16:33:23.098Z,25.67
2018-08-22T16:35:51.140Z,24.70
2018-08-22T16:38:19.199Z,25.73
2018-08-22T16:40:49.402Z,26.10
2018-08-22T16:43:34.452Z,26.70
2018-08-22T16:46:04.251Z,25.33
2018-08-22T16:48:32.317Z,24.70
2018-08-22T16:51:00.425Z,25.07
2018-08-22T16:53:28.544Z,25.97
2018-08-22T16:55:56.676Z,25.60
2018-08-22T16:58:24.924Z,24.63
2018-08-22T17:00:53.046Z,25.90
2018-08-22T17:03:21.131Z,26.23
2018-08-22T17:05:49.233Z,25.90
2018-08-22T17:08:17.304Z,25.97
2018-08-22T17:10:55.240Z,25.07
2018-08-22T17:13:29.271Z,25.07
2018-08-22T17:15:58.669Z,25.60
2018-08-22T17:18:27.146Z,25.23
2018-08-22T17:20:55.275Z,26.03
2018-08-22T17:23:23.475Z,25.00
2018-08-22T17:25:51.766Z,24.60
2018-08-22T17:28:25.609Z,25.47
2018-08-22T17:30:53.768Z,25.30
2018-08-22T17:33:24.572Z,24.57
2018-08-22T17:35:57.261Z,24.97
2018-08-22T17:38:25.949Z,24.50
2018-08-22T17:40:54.199Z,25.73
2018-08-22T17:43:22.520Z,27.40
2018-08-22T17:45:50.911Z,26.00
2018-08-22T17:48:19.125Z,25.20
2018-08-22T17:50:47.228Z,25.30
2018-08-22T17:53:15.437Z,25.17
2018-08-22T17:55:43.652Z,25.10
2018-08-22T17:58:11.801Z,24.80
2018-08-22T18:00:39.994Z,24.43
2018-08-22T18:03:08.096Z,23.90
2018-08-22T18:05:36.764Z,23.53
2018-08-22T18:08:06.376Z,24.73
2018-08-22T18:10:36.704Z,24.70
2018-08-22T18:13:10.408Z,25.90
2018-08-22T18:15:38.592Z,25.23
2018-08-22T18:18:06.741Z,25.60
2018-08-22T18:20:38.681Z,26.17
2018-08-22T18:23:06.807Z,26.73
2018-08-22T18:25:35.062Z,27.57
2018-08-22T18:28:04.940Z,27.83
2018-08-22T18:30:33.479Z,31.57
2018-08-22T18:33:02.295Z,33.50
2018-08-22T18:35:30.657Z,29.90
2018-08-22T18:37:58.771Z,27.83
2018-08-22T18:40:31.025Z,26.50
2018-08-22T18:43:02.508Z,28.30
2018-08-22T18:45:30.872Z,28.00
2018-08-22T18:48:02.057Z,28.47
2018-08-22T18:50:30.398Z,25.23
2018-08-22T18:52:59.723Z,25.23
2018-08-22T18:55:29.155Z,25.60
2018-08-22T18:57:58.635Z,25.00
2018-08-22T19:00:26.788Z,26.10
2018-08-22T19:02:56.248Z,25.63
2018-08-22T19:05:32.825Z,25.47
2018-08-22T19:08:11.013Z,25.87
2018-08-22T19:10:40.618Z,25.03
2018-08-22T19:13:10.717Z,25.43
2018-08-22T19:15:39.072Z,25.57
2018-08-22T19:18:08.639Z,25.57
2018-08-22T19:20:37.179Z,25.20
2018-08-22T19:23:05.370Z,25.60
2018-08-22T19:25:33.791Z,26.73
2018-08-22T19:28:02.596Z,25.50
2018-08-22T19:30:31.189Z,27.87
2018-08-22T19:32:59.373Z,25.73
2018-08-22T19:35:27.532Z,27.40
2018-08-22T19:38:01.305Z,29.57
2018-08-22T19:40:29.463Z,26.90
2018-08-22T19:42:58.273Z,27.70
2018-08-22T19:45:26.505Z,26.90
2018-08-22T19:47:54.779Z,27.10
2018-08-22T19:50:22.934Z,26.80
2018-08-22T19:52:51.317Z,31.40
2018-08-22T19:55:19.599Z,27.87
2018-08-22T19:57:47.948Z,27.60
2018-08-22T20:00:16.525Z,27.97
2018-08-22T20:02:46.792Z,27.90
2018-08-22T20:05:14.985Z,27.60
2018-08-22T20:07:43.187Z,27.27
2018-08-22T20:10:12.482Z,27.07
2018-08-22T20:12:44.424Z,27.13
2018-08-22T20:15:12.930Z,27.33
2018-08-22T20:17:41.395Z,27.60
2018-08-22T20:20:10.837Z,27.03
2018-08-22T20:22:42.078Z,27.70
2018-08-22T20:25:11.067Z,26.43
2018-08-22T20:27:39.664Z,26.93
2018-08-22T20:30:12.141Z,26.43
2018-08-22T20:32:58.636Z,26.30
2018-08-22T20:35:28.944Z,25.77
2018-08-22T20:37:58.645Z,26.90
2018-08-22T20:40:26.875Z,25.60
2018-08-22T20:42:55.156Z,27.30
2018-08-22T20:45:28.720Z,27.87
2018-08-22T20:48:02.412Z,26.03
2018-08-22T20:50:30.790Z,27.40
2018-08-22T20:53:00.667Z,27.33
2018-08-22T20:55:28.887Z,26.83
2018-08-22T20:57:58.069Z,27.10
2018-08-22T21:00:26.976Z,25.77
2018-08-22T21:02:56.540Z,24.63
2018-08-22T21:05:24.876Z,25.47
2018-08-22T21:07:53.025Z,25.40
2018-08-22T21:10:21.097Z,27.17
2018-08-22T21:12:49.885Z,27.27
2018-08-22T21:15:18.030Z,26.90
2018-08-22T21:17:46.352Z,25.57
2018-08-22T21:20:23.005Z,26.67
2018-08-22T21:22:51.761Z,27.43
2018-08-22T21:25:19.898Z,25.80
2018-08-22T21:27:48.980Z,27.20
2018-08-22T21:30:17.471Z,26.17
2018-08-22T21:32:46.581Z,26.80
2018-08-22T21:35:25.850Z,27.73
2018-08-22T21:37:58.131Z,26.90
2018-08-22T21:40:26.296Z,27.50
2018-08-22T21:42:54.548Z,27.43
2018-08-22T21:45:22.889Z,26.37
2018-08-22T21:48:04.619Z,26.57
2018-08-22T21:50:32.796Z,26.40
2018-08-22T21:53:02.260Z,27.00
2018-08-22T21:55:35.899Z,26.30
2018-08-22T21:58:04.502Z,26.53
2018-08-22T22:00:32.662Z,26.10
2018-08-22T22:03:00.727Z,26.40
2018-08-22T22:05:40.258Z,26.83
2018-08-22T22:08:08.839Z,27.47
2018-08-22T22:10:36.872Z,27.03
2018-08-22T22:13:04.948Z,26.00
2018-08-22T22:15:38.479Z,26.43
2018-08-22T22:18:07.056Z,25.53
2018-08-22T22:20:35.135Z,26.90
2018-08-22T22:23:03.245Z,25.73
2018-08-22T22:25:31.309Z,25.37
2018-08-22T22:27:59.418Z,26.37
2018-08-22T22:30:27.492Z,24.60
2018-08-22T22:32:57.524Z,26.03
2018-08-22T22:35:31.062Z,25.30
2018-08-22T22:38:05.821Z,26.60
2018-08-22T22:40:33.974Z,25.87
2018-08-22T22:43:02.081Z,26.50
2018-08-22T22:45:30.276Z,26.47
2018-08-22T22:47:58.393Z,24.93
2018-08-22T22:50:26.509Z,24.93
2018-08-22T22:52:54.647Z,24.23
2018-08-22T22:55:22.724Z,25.13
2018-08-22T22:57:50.830Z,25.47
2018-08-22T23:00:19.432Z,25.70
2018-08-22T23:02:53.240Z,26.30
2018-08-22T23:05:21.369Z,26.40
2018-08-22T23:07:49.428Z,26.50
2018-08-22T23:10:17.492Z,27.10
2018-08-22T23:12:47.087Z,25.33
2018-08-22T23:15:19.815Z,24.07
2018-08-22T23:17:48.018Z,25.07
2018-08-22T23:20:43.073Z,25.43
2018-08-22T23:23:29.057Z,25.63
2018-08-22T23:26:04.764Z,25.87
2018-08-22T23:28:32.884Z,25.00
2018-08-22T23:31:01.022Z,24.40
2018-08-22T23:33:29.141Z,24.63
2018-08-22T23:35:57.186Z,25.33
2018-08-22T23:38:31.187Z,23.50
2018-08-22T23:40:59.828Z,24.80
2018-08-22T23:43:35.772Z,24.33
2018-08-22T23:46:04.097Z,23.87
2018-08-22T23:48:34.437Z,24.93
2018-08-22T23:51:03.870Z,23.60
2018-08-22T23:53:37.614Z,23.23
2018-08-22T23:56:14.285Z,23.60
2018-08-22T23:58:43.398Z,22.43
